Time;durP1;ratioP1;P1;durP2;ratioP2;P2;SDS_P1;SDS_P2;PMS_P1;PMS_P2;Temp;Humidity;BMP_temperature;BMP_pressure;BME280_temperature;BME280_humidity;BME280_pressure;Samples;Min_cycle;Max_cycle;Signal;HPM_P1;HPM_P2
2023/01/11 00:01:31;;;;;;;5.32;3.90;;;6.40;99.90;;;;;;5056829;28;20063;-48
2023/01/11 00:03:57;;;;;;;6.55;3.72;;;6.40;99.90;;;;;;5039912;28;20132;-48
2023/01/11 00:06:23;;;;;;;6.60;3.63;;;6.40;99.90;;;;;;5056844;28;20043;-48
2023/01/11 00:08:48;;;;;;;7.28;4.95;;;6.50;99.90;;;;;;5053916;28;20033;-48
2023/01/11 00:11:15;;;;;;;4.25;3.08;;;6.50;99.90;;;;;;5020243;28;20047;-48
2023/01/11 00:13:44;;;;;;;3.50;2.55;;;6.40;99.90;;;;;;5053430;28;20040;-49
2023/01/11 00:16:10;;;;;;;4.97;3.50;;;6.40;99.90;;;;;;5053493;28;20037;-48
2023/01/11 00:18:37;;;;;;;3.25;2.50;;;6.50;99.90;;;;;;5053432;28;20060;-48
2023/01/11 00:21:04;;;;;;;4.38;3.20;;;6.50;99.90;;;;;;5036500;28;20041;-48
2023/01/11 00:23:31;;;;;;;5.72;4.07;;;6.40;99.90;;;;;;5053235;28;20037;-48
2023/01/11 00:25:57;;;;;;;4.05;2.85;;;6.50;99.90;;;;;;5053144;28;20103;-48
2023/01/11 00:28:23;;;;;;;5.32;2.80;;;6.40;99.90;;;;;;5019855;28;20120;-48
2023/01/11 00:30:49;;;;;;;7.45;4.75;;;6.50;99.90;;;;;;5054798;28;20105;-48
2023/01/11 00:33:14;;;;;;;5.45;3.55;;;6.50;99.90;;;;;;5053235;28;20076;-48
2023/01/11 00:35:40;;;;;;;4.32;2.75;;;6.40;99.90;;;;;;5036698;28;20033;-48
2023/01/11 00:38:06;;;;;;;5.75;3.72;;;6.50;99.90;;;;;;5055287;28;20027;-48
2023/01/11 00:40:32;;;;;;;4.13;3.55;;;6.50;99.90;;;;;;5055524;28;20104;-48
2023/01/11 00:48:26;;;;;;;4.22;2.50;;;6.50;99.90;;;;;;5041141;28;20132;-52
2023/01/11 00:50:54;;;;;;;5.63;3.08;;;6.40;99.90;;;;;;5055958;28;20052;-48
2023/01/11 00:53:20;;;;;;;2.88;2.20;;;6.40;99.90;;;;;;5054919;28;20044;-48
2023/01/11 00:55:46;;;;;;;6.88;3.90;;;6.30;99.90;;;;;;5054683;28;20492;-48
2023/01/11 00:58:11;;;;;;;5.82;4.50;;;6.40;99.90;;;;;;5054914;28;20079;-48
2023/01/11 01:00:37;;;;;;;7.80;5.13;;;6.50;99.90;;;;;;5054811;28;20388;-48
2023/01/11 01:03:03;;;;;;;4.93;4.28;;;6.50;99.90;;;;;;5054661;28;20021;-48
2023/01/11 01:05:29;;;;;;;7.03;5.53;;;6.50;99.90;;;;;;5054694;28;20035;-48
2023/01/11 01:07:54;;;;;;;7.00;5.10;;;6.60;99.90;;;;;;5054597;28;20021;-48
2023/01/11 01:10:20;;;;;;;7.03;5.18;;;6.60;99.90;;;;;;5054568;28;20087;-48
2023/01/11 01:15:31;;;;;;;8.75;6.32;;;6.60;99.90;;;;;;5054436;28;20036;-48
2023/01/11 01:17:57;;;;;;;10.32;6.43;;;6.60;99.90;;;;;;5069260;28;20037;-48
2023/01/11 01:20:24;;;;;;;7.53;5.95;;;6.70;99.90;;;;;;5054586;28;20131;-48
2023/01/11 01:22:50;;;;;;;7.10;5.35;;;6.70;99.90;;;;;;5054652;28;20029;-48
2023/01/11 01:25:16;;;;;;;8.38;5.38;;;6.60;99.90;;;;;;5054153;28;20033;-48
2023/01/11 01:27:42;;;;;;;8.93;6.25;;;6.70;99.90;;;;;;5052328;28;20029;-47
2023/01/11 01:30:08;;;;;;;6.70;5.22;;;6.70;99.90;;;;;;5054308;28;20358;-48
2023/01/11 01:32:34;;;;;;;6.63;4.82;;;6.70;99.90;;;;;;5019208;28;20485;-48
2023/01/11 01:34:59;;;;;;;7.20;5.78;;;6.70;99.90;;;;;;5054120;28;20032;-47
2023/01/11 01:37:25;;;;;;;8.75;5.65;;;6.70;99.90;;;;;;5054153;28;20033;-48
2023/01/11 01:39:51;;;;;;;7.55;5.20;;;6.70;99.90;;;;;;5054902;28;20028;-48
2023/01/11 01:42:19;;;;;;;9.10;6.93;;;6.80;99.90;;;;;;5052971;28;20086;-49
2023/01/11 01:45:01;;;;;;;6.70;5.85;;;6.80;99.90;;;;;;5071220;28;20060;-48
2023/01/11 01:47:46;;;;;;;6.32;5.22;;;6.70;99.90;;;;;;5054729;28;20029;-48
2023/01/11 01:50:23;;;;;;;7.20;5.18;;;6.70;99.90;;;;;;5053407;28;20025;-48
2023/01/11 01:52:55;;;;;;;4.63;3.35;;;6.60;99.90;;;;;;5053755;28;20040;-47
2023/01/11 01:55:34;;;;;;;10.57;6.17;;;6.70;99.90;;;;;;5053346;28;20049;-48
2023/01/11 01:58:03;;;;;;;8.18;6.32;;;6.70;99.90;;;;;;5053812;28;20029;-48
2023/01/11 02:00:29;;;;;;;4.35;3.42;;;6.70;99.90;;;;;;5053542;28;20036;-48
2023/01/11 02:02:57;;;;;;;5.57;4.20;;;6.70;99.90;;;;;;5035186;28;20033;-48
2023/01/11 02:05:23;;;;;;;7.97;5.28;;;6.50;99.90;;;;;;5053415;28;20120;-48
2023/01/11 02:07:50;;;;;;;8.25;5.80;;;6.50;99.90;;;;;;5053690;28;20100;-48
2023/01/11 02:10:20;;;;;;;7.28;5.35;;;6.50;99.90;;;;;;5035031;28;20041;-48
2023/01/11 02:13:09;;;;;;;6.28;3.70;;;6.50;99.90;;;;;;5053501;28;20036;-48
2023/01/11 02:15:36;;;;;;;4.40;2.85;;;6.30;99.90;;;;;;5053553;28;20108;-48
2023/01/11 02:18:03;;;;;;;4.93;3.70;;;6.30;99.90;;;;;;5055241;28;20029;-47
2023/01/11 02:20:48;;;;;;;6.97;4.38;;;6.30;99.90;;;;;;5053795;28;20033;-48
2023/01/11 02:23:39;;;;;;;7.75;4.50;;;6.40;99.90;;;;;;5054185;28;20028;-49
2023/01/11 02:26:37;;;;;;;5.00;4.18;;;6.40;99.90;;;;;;5054221;28;20036;-47
2023/01/11 02:29:47;;;;;;;7.93;5.43;;;6.40;99.90;;;;;;4972887;28;20250;-48
2023/01/11 02:32:53;;;;;;;4.85;3.05;;;6.40;99.90;;;;;;4915021;29;20044;-57
2023/01/11 02:35:43;;;;;;;6.25;4.30;;;6.10;99.90;;;;;;4915169;29;20051;-48
2023/01/11 02:38:34;;;;;;;4.07;2.58;;;6.20;99.90;;;;;;4915858;29;20035;-48
2023/01/11 02:41:09;;;;;;;3.30;2.40;;;6.10;99.90;;;;;;4915712;29;20095;-48
2023/01/11 02:47:04;;;;;;;8.27;5.10;;;6.10;99.90;;;;;;4915550;29;20531;-47
2023/01/11 02:49:41;;;;;;;5.47;3.80;;;6.20;99.90;;;;;;4915349;29;20095;-47
2023/01/11 02:52:19;;;;;;;3.63;2.35;;;6.10;99.90;;;;;;4915615;29;20123;-48
2023/01/11 02:54:52;;;;;;;4.47;3.28;;;6.00;99.90;;;;;;4915275;29;20055;-54
2023/01/11 02:57:19;;;;;;;6.43;4.05;;;5.90;99.90;;;;;;4915808;29;20559;-48
2023/01/11 02:59:50;;;;;;;3.95;2.80;;;5.90;99.90;;;;;;4915283;29;20119;-47
2023/01/11 03:02:16;;;;;;;6.68;4.88;;;5.90;99.90;;;;;;4899099;29;20585;-49
2023/01/11 03:04:42;;;;;;;5.40;4.45;;;5.90;99.90;;;;;;4926337;28;20062;-47
2023/01/11 03:07:26;;;;;;;5.47;2.47;;;6.00;99.90;;;;;;4976381;28;20508;-47
2023/01/11 03:10:19;;;;;;;5.53;4.35;;;5.90;99.90;;;;;;5031143;28;20046;-47
2023/01/11 03:13:12;;;;;;;6.28;4.43;;;6.10;99.90;;;;;;5014470;28;20038;-48
2023/01/11 03:16:18;;;;;;;4.82;2.95;;;6.00;99.90;;;;;;5051466;28;20045;-47
2023/01/11 03:19:02;;;;;;;5.53;3.47;;;5.90;99.90;;;;;;5051268;28;20040;-48
2023/01/11 03:21:54;;;;;;;3.17;2.63;;;6.00;99.90;;;;;;5053301;28;20036;-48
2023/01/11 03:24:36;;;;;;;4.78;3.58;;;5.90;99.90;;;;;;5049442;28;20132;-48
2023/01/11 03:27:49;;;;;;;6.25;5.05;;;6.00;99.90;;;;;;5052990;28;20041;-47
2023/01/11 03:30:24;;;;;;;5.35;3.75;;;6.10;99.90;;;;;;4973288;28;20042;-48
2023/01/11 03:33:07;;;;;;;7.43;5.30;;;6.00;99.90;;;;;;4973437;28;20050;-47
2023/01/11 03:35:38;;;;;;;3.60;2.22;;;6.10;99.90;;;;;;4973698;28;20074;-49
2023/01/11 03:38:04;;;;;;;7.50;4.13;;;6.10;99.90;;;;;;4974175;28;20525;-47
2023/01/11 03:40:36;;;;;;;7.07;4.35;;;6.10;99.90;;;;;;4957066;28;20070;-47
2023/01/11 03:43:10;;;;;;;6.63;4.43;;;6.10;99.90;;;;;;4973569;28;20468;-48
2023/01/11 03:45:48;;;;;;;6.47;4.43;;;6.20;99.90;;;;;;4977030;28;20045;-55
2023/01/11 03:48:51;;;;;;;3.80;2.90;;;6.10;99.90;;;;;;4977005;28;20096;-47
2023/01/11 03:51:26;;;;;;;3.65;3.22;;;6.00;99.90;;;;;;4917916;29;20402;-47
2023/01/11 03:53:55;;;;;;;6.03;4.63;;;6.10;99.90;;;;;;4917437;29;20060;-47
2023/01/11 03:56:28;;;;;;;7.38;4.40;;;6.10;99.90;;;;;;4917614;29;20559;-47
2023/01/11 03:58:53;;;;;;;4.65;3.92;;;6.20;99.90;;;;;;4917554;29;20032;-47
2023/01/11 04:01:19;;;;;;;9.02;5.30;;;6.10;99.90;;;;;;4917602;29;20092;-47
2023/01/11 04:03:45;;;;;;;5.10;4.40;;;6.10;99.90;;;;;;4917620;29;20031;-47
2023/01/11 04:06:11;;;;;;;8.40;5.65;;;6.00;99.90;;;;;;4942093;28;20569;-47
2023/01/11 04:08:37;;;;;;;6.85;4.90;;;6.00;99.90;;;;;;4975043;28;20048;-52
2023/01/11 04:11:04;;;;;;;7.85;4.38;;;5.90;99.90;;;;;;4976231;28;20383;-48
2023/01/11 04:13:29;;;;;;;4.60;3.35;;;5.80;99.90;;;;;;4974873;28;20129;-47
2023/01/11 04:15:55;;;;;;;6.32;4.97;;;5.80;99.90;;;;;;4975261;28;20114;-47
2023/01/11 04:18:21;;;;;;;7.63;3.63;;;5.80;99.90;;;;;;4975863;28;20031;-47
2023/01/11 04:20:47;;;;;;;6.85;4.50;;;5.80;99.90;;;;;;4976117;28;20089;-47
2023/01/11 04:23:14;;;;;;;7.28;4.53;;;5.70;99.90;;;;;;4959437;28;20407;-47
2023/01/11 04:25:39;;;;;;;4.20;3.42;;;5.60;99.90;;;;;;4958672;28;20047;-47
2023/01/11 04:28:05;;;;;;;6.10;4.10;;;5.60;99.90;;;;;;5033641;28;20048;-49
2023/01/11 04:30:31;;;;;;;3.53;2.53;;;5.60;99.90;;;;;;5055419;28;20021;-47
2023/01/11 04:32:58;;;;;;;3.65;2.50;;;5.60;99.90;;;;;;5070194;28;20179;-47
2023/01/11 04:35:24;;;;;;;5.57;3.97;;;5.60;99.90;;;;;;5055374;28;20036;-47
2023/01/11 04:37:54;;;;;;;2.72;2.00;;;5.60;99.90;;;;;;5055442;28;20032;-47
2023/01/11 04:40:21;;;;;;;3.03;2.15;;;5.50;99.90;;;;;;5055262;28;20078;-47
2023/01/11 04:42:46;;;;;;;4.85;2.28;;;5.40;99.90;;;;;;5005554;28;20084;-48
2023/01/11 04:45:12;;;;;;;3.63;2.08;;;5.40;99.90;;;;;;5056788;28;20033;-48
2023/01/11 04:47:38;;;;;;;2.45;1.80;;;5.30;99.90;;;;;;5056581;28;20108;-49
2023/01/11 04:50:05;;;;;;;3.60;2.53;;;5.30;99.90;;;;;;5056120;28;20104;-48
2023/01/11 04:52:30;;;;;;;4.93;4.00;;;5.40;99.90;;;;;;5021280;28;20071;-49
2023/01/11 04:54:57;;;;;;;3.63;2.85;;;5.40;99.90;;;;;;5070236;28;20272;-47
2023/01/11 04:57:24;;;;;;;3.45;3.08;;;5.30;99.90;;;;;;5002120;28;20089;-47
2023/01/11 04:59:50;;;;;;;2.78;2.13;;;5.40;99.90;;;;;;5036362;28;20104;-47
2023/01/11 05:02:16;;;;;;;4.40;3.45;;;5.40;99.90;;;;;;5036385;28;20025;-51
2023/01/11 05:04:42;;;;;;;4.43;2.40;;;5.40;99.90;;;;;;5055069;28;20428;-47
2023/01/11 05:07:09;;;;;;;6.80;3.75;;;5.40;99.90;;;;;;5056208;28;20033;-51
2023/01/11 05:09:35;;;;;;;2.45;1.92;;;5.40;99.90;;;;;;5052048;28;20063;-47
2023/01/11 05:12:01;;;;;;;3.20;2.28;;;5.20;99.90;;;;;;5053045;28;20043;-57
2023/01/11 05:14:27;;;;;;;2.88;2.15;;;5.20;99.90;;;;;;5019904;28;20103;-47
2023/01/11 05:16:53;;;;;;;5.25;3.63;;;5.20;99.90;;;;;;5052628;28;20585;-47
2023/01/11 05:19:19;;;;;;;4.28;3.38;;;5.30;99.90;;;;;;5052368;28;20029;-47
2023/01/11 05:21:44;;;;;;;2.28;1.42;;;5.30;99.90;;;;;;5019200;28;20479;-47
2023/01/11 05:24:12;;;;;;;2.58;1.95;;;;;;;;;;5014465;28;20506;-47
2023/01/11 05:26:40;;;;;;;4.57;2.70;;;5.10;99.90;;;;;;5052337;28;20060;-47
2023/01/11 05:29:09;;;;;;;3.20;2.63;;;5.10;99.90;;;;;;5052067;28;20029;-48
2023/01/11 05:31:36;;;;;;;5.63;2.67;;;5.10;99.90;;;;;;5041859;28;20026;-48
2023/01/11 05:34:02;;;;;;;5.15;3.10;;;5.10;99.90;;;;;;4992389;28;20081;-48
2023/01/11 05:36:28;;;;;;;4.85;3.40;;;5.20;99.90;;;;;;4976426;28;20035;-47
2023/01/11 05:38:55;;;;;;;5.65;2.88;;;5.20;99.90;;;;;;4992800;28;20035;-47
2023/01/11 05:41:23;;;;;;;5.00;3.17;;;5.10;99.90;;;;;;4993329;28;20030;-47
2023/01/11 05:46:36;;;;;;;4.55;3.35;;;5.30;99.90;;;;;;5013084;28;20087;-47
2023/01/11 05:49:03;;;;;;;4.72;3.20;;;5.30;99.90;;;;;;5032013;28;20033;-47
2023/01/11 05:51:30;;;;;;;6.10;3.35;;;5.40;99.90;;;;;;5029673;28;20481;-47
2023/01/11 05:53:56;;;;;;;3.90;3.40;;;5.30;99.90;;;;;;5015120;28;20409;-47
2023/01/11 05:56:22;;;;;;;7.90;5.28;;;5.30;99.90;;;;;;5030690;28;20041;-47
2023/01/11 05:58:49;;;;;;;6.25;3.83;;;5.50;99.90;;;;;;5031773;28;20042;-47
2023/01/11 06:01:16;;;;;;;6.43;4.80;;;5.60;99.90;;;;;;5030432;28;20052;-48
2023/01/11 06:03:42;;;;;;;6.07;4.55;;;5.60;99.90;;;;;;5030758;28;20125;-47
2023/01/11 06:06:08;;;;;;;6.15;4.28;;;5.60;99.90;;;;;;5030499;28;20037;-47
2023/01/11 06:08:34;;;;;;;7.75;4.78;;;5.60;99.90;;;;;;5031209;28;20057;-47
2023/01/11 06:10:59;;;;;;;5.00;3.22;;;5.60;99.90;;;;;;5039218;28;20045;-47
2023/01/11 06:13:25;;;;;;;8.65;5.60;;;5.50;99.90;;;;;;5053099;28;20049;-47
2023/01/11 06:15:59;;;;;;;5.05;3.13;;;5.60;99.90;;;;;;5053776;28;20477;-47
2023/01/11 06:18:25;;;;;;;8.05;5.60;;;5.60;99.90;;;;;;5049651;28;20033;-48
2023/01/11 06:20:53;;;;;;;5.22;4.15;;;5.60;99.90;;;;;;5051706;28;20024;-47
2023/01/11 06:23:20;;;;;;;6.43;4.13;;;5.60;99.90;;;;;;5052844;28;20025;-47
2023/01/11 06:25:46;;;;;;;6.57;5.05;;;5.60;99.90;;;;;;5051121;28;20447;-47
2023/01/11 06:28:12;;;;;;;26.85;16.35;;;5.60;99.90;;;;;;5053182;28;20037;-47
2023/01/11 06:30:38;;;;;;;27.17;13.20;;;5.60;99.90;;;;;;5053597;28;20128;-47
2023/01/11 06:33:07;;;;;;;29.42;16.27;;;5.60;99.90;;;;;;5051174;28;20544;-48
2023/01/11 06:35:37;;;;;;;17.50;10.25;;;5.60;99.90;;;;;;5053063;28;20040;-48
2023/01/11 06:38:03;;;;;;;10.70;7.72;;;5.60;99.90;;;;;;5052756;28;20112;-49
2023/01/11 06:40:29;;;;;;;6.68;5.25;;;5.60;99.90;;;;;;5053122;28;20072;-49
2023/01/11 06:42:54;;;;;;;7.60;5.78;;;5.70;99.90;;;;;;5052013;28;20079;-49
2023/01/11 06:45:20;;;;;;;5.50;4.38;;;5.60;99.90;;;;;;5050683;28;20471;-50
2023/01/11 06:47:46;;;;;;;7.93;4.93;;;5.50;99.90;;;;;;5053159;28;20035;-48
2023/01/11 06:50:12;;;;;;;5.32;3.42;;;5.60;99.90;;;;;;5053051;28;20102;-48
2023/01/11 06:52:37;;;;;;;9.82;6.88;;;5.50;99.90;;;;;;5034292;28;20064;-48
2023/01/11 06:55:04;;;;;;;12.30;7.18;;;5.60;99.90;;;;;;5052785;28;20166;-49
2023/01/11 06:57:29;;;;;;;8.82;6.25;;;5.60;99.90;;;;;;4968243;28;20068;-49
2023/01/11 06:59:55;;;;;;;12.13;7.13;;;5.60;99.90;;;;;;5052942;28;20485;-48
2023/01/11 07:02:21;;;;;;;10.73;6.85;;;5.70;99.90;;;;;;5052508;28;20036;-48
2023/01/11 07:04:46;;;;;;;10.57;6.38;;;5.60;99.90;;;;;;5052996;28;20025;-49
2023/01/11 07:07:12;;;;;;;10.35;7.78;;;5.50;99.90;;;;;;5052817;28;20561;-48
2023/01/11 07:09:38;;;;;;;6.70;6.00;;;5.60;99.90;;;;;;5052756;28;20540;-49
2023/01/11 07:12:04;;;;;;;6.03;3.55;;;5.60;99.90;;;;;;5052987;28;20040;-48
2023/01/11 07:14:30;;;;;;;8.27;6.45;;;5.60;99.90;;;;;;5033967;28;20053;-49
2023/01/11 07:16:55;;;;;;;10.57;6.18;;;5.50;99.90;;;;;;5034406;28;20094;-49
2023/01/11 07:19:21;;;;;;;9.60;6.15;;;5.60;99.90;;;;;;5056164;28;20044;-48
2023/01/11 07:21:47;;;;;;;10.75;6.60;;;5.60;99.90;;;;;;5057046;28;20571;-49
2023/01/11 07:24:12;;;;;;;8.55;6.05;;;5.40;99.90;;;;;;5055285;28;20040;-49
2023/01/11 07:26:40;;;;;;;6.97;5.00;;;5.30;99.90;;;;;;5055913;28;20124;-49
2023/01/11 07:29:09;;;;;;;8.50;4.97;;;5.30;99.90;;;;;;5055066;28;20477;-50
2023/01/11 07:31:36;;;;;;;10.77;5.95;;;5.30;99.90;;;;;;5054152;28;20035;-49
2023/01/11 07:34:02;;;;;;;5.35;3.78;;;5.20;99.90;;;;;;5055871;28;20040;-49
2023/01/11 07:36:34;;;;;;;8.48;5.90;;;5.10;99.90;;;;;;5055377;28;20025;-50
2023/01/11 07:39:00;;;;;;;8.68;5.72;;;5.10;99.90;;;;;;5055342;28;20043;-49
2023/01/11 07:44:10;;;;;;;7.72;4.80;;;5.20;99.90;;;;;;5053319;28;20043;-50
2023/01/11 07:46:36;;;;;;;8.38;4.93;;;5.00;99.90;;;;;;5049930;28;20025;-49
2023/01/11 07:49:02;;;;;;;7.68;5.57;;;5.20;99.90;;;;;;5063757;28;20039;-49
2023/01/11 07:51:27;;;;;;;5.38;4.07;;;5.20;99.90;;;;;;5066145;28;20055;-48
2023/01/11 07:53:53;;;;;;;7.88;5.15;;;5.20;99.90;;;;;;5053534;28;20049;-48
2023/01/11 07:56:19;;;;;;;9.90;7.90;;;5.30;99.90;;;;;;5052179;28;20094;-49
2023/01/11 07:58:45;;;;;;;14.00;7.50;;;5.30;99.90;;;;;;5053973;28;20029;-48
2023/01/11 08:01:11;;;;;;;10.13;7.05;;;5.30;99.90;;;;;;5049542;28;20409;-49
2023/01/11 08:03:36;;;;;;;7.43;4.35;;;5.30;99.90;;;;;;5051922;28;20048;-49
2023/01/11 08:06:02;;;;;;;10.23;6.15;;;5.40;99.90;;;;;;5018727;28;20069;-49
2023/01/11 08:08:28;;;;;;;9.40;5.97;;;5.40;99.90;;;;;;5050903;28;20036;-49
2023/01/11 08:16:22;;;;;;;10.20;6.00;;;5.40;99.90;;;;;;5051546;28;20048;-49
2023/01/11 08:18:50;;;;;;;8.57;6.30;;;5.50;99.90;;;;;;5050162;28;20033;-49
2023/01/11 08:21:16;;;;;;;7.05;4.45;;;5.50;99.90;;;;;;5051033;28;20499;-49
2023/01/11 08:23:42;;;;;;;8.23;5.55;;;5.40;99.90;;;;;;5034921;28;20045;-49
2023/01/11 08:26:08;;;;;;;8.23;5.72;;;5.40;99.90;;;;;;5051666;28;20244;-49
2023/01/11 08:28:34;;;;;;;6.70;5.10;;;5.50;99.90;;;;;;5051629;28;20043;-49
2023/01/11 08:31:05;;;;;;;9.35;4.82;;;5.50;99.90;;;;;;5016403;28;20159;-49
2023/01/11 08:33:31;;;;;;;7.23;4.57;;;5.40;99.90;;;;;;5049201;28;20053;-49
2023/01/11 08:35:56;;;;;;;9.10;4.32;;;5.30;99.90;;;;;;4999202;28;20365;-50
2023/01/11 08:38:22;;;;;;;7.95;4.82;;;5.40;99.90;;;;;;5052163;28;20543;-49
2023/01/11 08:40:48;;;;;;;8.68;5.90;;;5.30;99.90;;;;;;5029020;28;20116;-49
2023/01/11 08:43:13;;;;;;;7.70;5.07;;;5.40;99.90;;;;;;5052881;28;20032;-49
2023/01/11 08:45:39;;;;;;;10.98;7.03;;;5.30;99.90;;;;;;5054251;28;20532;-54
2023/01/11 08:48:05;;;;;;;9.10;5.15;;;5.20;99.90;;;;;;5025834;28;20484;-49
2023/01/11 08:50:31;;;;;;;10.25;5.47;;;5.40;99.90;;;;;;5032524;28;20473;-50
2023/01/11 08:52:57;;;;;;;8.82;6.60;;;5.40;99.90;;;;;;5046983;28;20090;-50
2023/01/11 08:55:22;;;;;;;7.63;4.53;;;5.40;99.90;;;;;;5053303;28;20408;-50
2023/01/11 08:57:48;;;;;;;11.63;7.78;;;5.50;99.90;;;;;;5052146;28;20468;-50
2023/01/11 09:00:14;;;;;;;10.13;4.28;;;5.50;99.90;;;;;;5050666;28;20082;-50
2023/01/11 09:02:40;;;;;;;6.90;4.97;;;5.50;99.90;;;;;;5047919;28;20439;-48
2023/01/11 09:05:06;;;;;;;7.55;5.72;;;5.50;99.90;;;;;;5052975;28;20037;-52
2023/01/11 09:07:32;;;;;;;7.90;5.07;;;5.50;99.90;;;;;;5032474;28;20040;-50
2023/01/11 09:09:57;;;;;;;10.63;6.07;;;5.50;99.90;;;;;;5052816;28;20024;-50
2023/01/11 09:12:24;;;;;;;9.98;5.32;;;5.30;99.90;;;;;;5051912;28;20108;-49
2023/01/11 09:14:50;;;;;;;4.88;3.22;;;5.30;99.90;;;;;;5053675;28;20045;-49
2023/01/11 09:17:15;;;;;;;8.43;4.90;;;5.20;99.90;;;;;;5034575;28;20051;-50
2023/01/11 09:19:41;;;;;;;11.60;6.93;;;5.30;99.90;;;;;;5050420;28;20082;-50
2023/01/11 09:22:07;;;;;;;5.32;4.63;;;5.20;99.90;;;;;;5052138;28;20029;-51
2023/01/11 09:24:32;;;;;;;9.88;5.50;;;5.10;99.90;;;;;;5052316;28;20033;-50
2023/01/11 09:26:59;;;;;;;7.50;5.05;;;5.00;99.90;;;;;;5052722;28;20040;-50
2023/01/11 09:29:25;;;;;;;10.98;5.88;;;4.90;99.90;;;;;;5052174;28;20035;-50
2023/01/11 09:31:51;;;;;;;17.02;10.38;;;5.10;99.90;;;;;;5053249;28;20369;-50
2023/01/11 09:34:18;;;;;;;9.10;4.45;;;5.10;99.90;;;;;;5046694;28;20060;-50
2023/01/11 09:36:46;;;;;;;9.95;6.18;;;5.00;99.90;;;;;;5053260;28;20043;-49
2023/01/11 09:39:14;;;;;;;11.02;8.07;;;4.90;99.90;;;;;;5052082;28;20032;-52
2023/01/11 09:42:10;;;;;;;8.05;6.50;;;5.00;99.90;;;;;;5052810;28;20123;-50
2023/01/11 09:44:53;;;;;;;13.48;7.95;;;5.00;99.90;;;;;;5050748;28;20045;-50
2023/01/11 09:47:43;;;;;;;9.98;7.65;;;5.00;99.90;;;;;;5051238;28;20464;-52
2023/01/11 09:50:16;;;;;;;8.45;5.88;;;5.30;99.90;;;;;;5051003;28;20389;-50
2023/01/11 09:52:46;;;;;;;9.90;7.43;;;5.20;99.90;;;;;;5050171;28;20029;-50
2023/01/11 09:55:23;;;;;;;8.93;6.07;;;5.20;99.90;;;;;;5049702;28;20075;-51
2023/01/11 09:58:14;;;;;;;10.35;6.47;;;5.20;99.90;;;;;;5051939;28;20489;-50
2023/01/11 10:01:03;;;;;;;9.52;5.53;;;5.30;99.90;;;;;;5048541;28;20484;-51
2023/01/11 10:04:02;;;;;;;7.35;5.10;;;5.40;99.90;;;;;;5051036;28;20036;-49
2023/01/11 10:07:23;;;;;;;7.68;5.03;;;5.30;99.90;;;;;;5051330;28;20033;-49
2023/01/11 10:10:07;;;;;;;11.30;7.05;;;5.30;99.90;;;;;;5049880;28;20392;-50
2023/01/11 10:12:58;;;;;;;8.90;6.90;;;5.20;99.90;;;;;;5049919;28;20090;-50
2023/01/11 10:15:41;;;;;;;13.57;5.70;;;5.30;99.90;;;;;;5048828;28;20116;-49
2023/01/11 10:18:12;;;;;;;;;;;5.40;99.90;;;;;;5049854;28;20266;-51
2023/01/11 10:20:46;;;;;;;8.48;6.88;;;5.30;99.90;;;;;;5050499;28;20383;-50
2023/01/11 10:23:43;;;;;;;6.13;4.53;;;5.40;99.90;;;;;;5048865;28;20491;-50
2023/01/11 10:26:23;;;;;;;12.73;6.63;;;5.20;99.90;;;;;;5049200;28;20586;-50
2023/01/11 10:34:44;;;;;;;8.90;6.00;;;5.30;99.90;;;;;;5047375;28;20169;-50
2023/01/11 10:40:30;;;;;;;8.25;6.18;;;5.20;99.90;;;;;;5049302;28;20044;-50
2023/01/11 10:43:11;;;;;;;10.25;6.05;;;5.20;99.90;;;;;;5048642;28;20028;-49
2023/01/11 10:45:49;;;;;;;9.15;5.65;;;5.30;99.90;;;;;;5050705;28;20037;-50
2023/01/11 10:48:36;;;;;;;9.98;6.65;;;5.30;99.90;;;;;;5050047;28;20037;-50
2023/01/11 10:51:28;;;;;;;10.88;7.32;;;5.40;99.90;;;;;;5052029;28;20029;-51
2023/01/11 10:54:15;;;;;;;9.65;6.50;;;5.50;99.90;;;;;;5050681;28;20067;-50
2023/01/11 10:57:10;;;;;;;8.23;5.43;;;5.50;99.90;;;;;;5066107;28;20045;-50
2023/01/11 10:59:55;;;;;;;8.88;5.90;;;5.40;99.90;;;;;;5050409;28;20036;-50
2023/01/11 11:02:45;;;;;;;14.32;8.18;;;5.50;99.90;;;;;;5049931;28;20032;-52
2023/01/11 11:05:26;;;;;;;9.57;6.40;;;5.50;99.90;;;;;;5050760;28;20055;-50
2023/01/11 11:07:54;;;;;;;9.93;6.18;;;5.50;99.90;;;;;;5049995;28;20025;-50
2023/01/11 11:10:39;;;;;;;10.20;7.53;;;5.60;99.90;;;;;;5048022;28;20095;-50
2023/01/11 11:13:16;;;;;;;24.42;14.63;;;5.60;99.90;;;;;;5050985;28;20043;-50
2023/01/11 11:16:02;;;;;;;12.85;8.38;;;5.60;99.90;;;;;;5051103;28;20033;-49
2023/01/11 11:18:28;;;;;;;8.10;6.45;;;5.50;99.90;;;;;;5032816;28;20405;-50
2023/01/11 11:21:01;;;;;;;8.60;4.93;;;5.60;99.90;;;;;;5051208;28;20078;-50
2023/01/11 11:23:29;;;;;;;13.43;8.38;;;5.60;99.90;;;;;;5047896;28;20428;-50
2023/01/11 11:25:58;;;;;;;12.52;7.63;;;5.60;99.90;;;;;;5047239;28;20041;-50
2023/01/11 11:28:26;;;;;;;10.30;6.57;;;5.70;99.90;;;;;;5050568;28;20033;-50
2023/01/11 11:30:56;;;;;;;12.65;7.65;;;5.80;99.90;;;;;;5051657;28;20060;-50
2023/01/11 11:33:39;;;;;;;13.25;7.97;;;5.90;99.90;;;;;;5050381;28;20116;-50
2023/01/11 11:36:13;;;;;;;12.07;8.13;;;6.00;99.90;;;;;;5048564;28;20483;-51
2023/01/11 11:39:01;;;;;;;12.50;8.00;;;6.10;99.90;;;;;;5050538;28;20036;-51
2023/01/11 11:41:27;;;;;;;13.93;7.50;;;6.10;99.90;;;;;;5050960;28;20024;-50
2023/01/11 11:44:14;;;;;;;11.13;7.63;;;5.90;99.90;;;;;;5041543;28;20128;-50
2023/01/11 11:46:40;;;;;;;11.18;7.13;;;6.00;99.90;;;;;;5049094;28;20040;-50
2023/01/11 11:49:15;;;;;;;9.52;6.47;;;6.00;99.90;;;;;;5047955;28;20115;-50
2023/01/11 11:51:43;;;;;;;8.88;5.90;;;6.10;99.90;;;;;;5050237;28;20029;-51
2023/01/11 11:54:27;;;;;;;11.10;8.18;;;6.20;99.90;;;;;;5050009;28;20049;-50
2023/01/11 11:56:55;;;;;;;10.77;6.70;;;6.30;99.90;;;;;;5042939;28;20122;-50
2023/01/11 11:59:23;;;;;;;7.93;5.55;;;6.30;99.90;;;;;;5043978;28;20036;-50
2023/01/11 12:01:58;;;;;;;6.40;5.43;;;6.30;99.90;;;;;;5041141;28;20107;-51
2023/01/11 12:04:35;;;;;;;9.27;5.68;;;6.40;99.90;;;;;;5034237;28;20552;-50
2023/01/11 12:07:15;;;;;;;9.07;6.25;;;6.40;99.90;;;;;;5043970;28;20119;-50
2023/01/11 12:09:48;;;;;;;9.05;5.18;;;6.40;99.90;;;;;;5038973;28;20036;-50
2023/01/11 12:12:19;;;;;;;9.35;5.43;;;6.30;99.90;;;;;;5015650;28;20555;-50
2023/01/11 12:15:06;;;;;;;10.45;6.32;;;6.30;99.90;;;;;;5045317;28;20049;-51
2023/01/11 12:17:32;;;;;;;8.55;6.47;;;6.30;99.90;;;;;;5028870;28;20036;-50
2023/01/11 12:19:58;;;;;;;8.73;6.20;;;6.40;99.90;;;;;;5039076;28;20034;-50
2023/01/11 12:22:27;;;;;;;14.80;7.95;;;6.40;99.90;;;;;;5043048;28;20029;-50
2023/01/11 12:25:17;;;;;;;9.68;6.75;;;6.40;99.90;;;;;;5043099;28;20049;-50
2023/01/11 12:28:06;;;;;;;11.32;7.47;;;6.50;99.90;;;;;;5045999;28;20033;-50
2023/01/11 12:30:55;;;;;;;10.38;6.82;;;6.60;99.90;;;;;;5043118;28;20631;-52
2023/01/11 12:33:32;;;;;;;6.97;5.20;;;6.60;99.90;;;;;;5046275;28;20120;-50
2023/01/11 12:36:07;;;;;;;12.23;7.90;;;6.60;99.90;;;;;;5033300;28;20508;-45
2023/01/11 12:38:56;;;;;;;7.82;6.15;;;6.60;99.90;;;;;;5049152;28;20112;-52
2023/01/11 12:42:07;;;;;;;10.02;6.18;;;6.60;99.90;;;;;;5053070;28;20071;-47
2023/01/11 12:45:02;;;;;;;10.00;6.72;;;6.60;99.90;;;;;;5033457;28;20040;-47
2023/01/11 12:48:08;;;;;;;10.45;6.57;;;6.60;99.90;;;;;;5049446;28;20082;-50
2023/01/11 12:50:46;;;;;;;7.65;5.63;;;6.60;99.90;;;;;;5010621;28;20445;-53
2023/01/11 12:53:44;;;;;;;7.68;5.38;;;6.70;99.90;;;;;;5011059;28;20088;-51
2023/01/11 12:56:51;;;;;;;7.82;5.32;;;6.60;99.90;;;;;;5004710;28;20057;-47
2023/01/11 12:59:38;;;;;;;10.82;6.25;;;6.50;99.90;;;;;;4971022;28;20193;-48
2023/01/11 13:02:32;;;;;;;9.80;5.45;;;6.60;99.90;;;;;;4971373;28;20070;-51
2023/01/11 13:04:57;;;;;;;9.40;6.72;;;6.60;99.90;;;;;;4971488;28;20054;-47
2023/01/11 13:07:44;;;;;;;9.98;6.07;;;6.60;99.90;;;;;;4970746;28;20046;-47
2023/01/11 13:10:34;;;;;;;9.77;7.20;;;6.70;99.90;;;;;;4971274;28;20041;-46
2023/01/11 13:13:04;;;;;;;12.02;7.40;;;6.80;99.90;;;;;;4972312;28;20406;-46
2023/01/11 13:15:40;;;;;;;19.17;11.43;;;6.70;99.90;;;;;;4969353;28;20046;-48
2023/01/11 13:18:27;;;;;;;13.60;8.57;;;6.60;99.90;;;;;;4965078;28;20043;-47
2023/01/11 13:20:57;;;;;;;14.05;9.07;;;6.60;99.90;;;;;;4960976;28;20077;-44
2023/01/11 13:23:40;;;;;;;18.20;10.45;;;6.70;99.90;;;;;;4989504;28;20022;-52
2023/01/11 13:26:23;;;;;;;17.55;10.95;;;6.70;99.90;;;;;;4985849;28;20030;-47
2023/01/11 13:29:12;;;;;;;20.75;11.32;;;6.70;99.90;;;;;;4988015;28;20540;-49
2023/01/11 13:31:39;;;;;;;16.67;9.68;;;6.70;99.90;;;;;;4984455;28;20042;-46
2023/01/11 13:34:26;;;;;;;13.20;8.20;;;6.90;99.90;;;;;;4999886;28;20037;-48
2023/01/11 13:37:00;;;;;;;11.02;7.43;;;6.80;99.90;;;;;;5049202;28;20064;-47
2023/01/11 13:39:51;;;;;;;15.18;10.43;;;6.80;99.90;;;;;;5050013;28;20199;-51
2023/01/11 13:42:29;;;;;;;11.68;7.10;;;6.90;99.90;;;;;;4993190;28;20054;-50
2023/01/11 13:45:21;;;;;;;13.68;8.43;;;6.90;99.90;;;;;;5009728;28;20407;-50
2023/01/11 13:48:00;;;;;;;15.60;7.18;;;6.90;99.90;;;;;;4934095;29;20050;-50
2023/01/11 13:50:36;;;;;;;13.07;8.90;;;6.90;99.90;;;;;;4934645;29;20047;-50
2023/01/11 13:53:08;;;;;;;12.82;7.70;;;6.90;99.90;;;;;;4915914;29;20040;-50
2023/01/11 13:55:43;;;;;;;14.95;8.38;;;6.90;99.90;;;;;;4928966;29;20058;-50